Time;durP1;ratioP1;P1;durP2;ratioP2;P2;SDS_P1;SDS_P2;PMS_P1;PMS_P2;Temp;Humidity;BMP_temperature;BMP_pressure;BME280_temperature;BME280_humidity;BME280_pressure;Samples;Min_cycle;Max_cycle;Signal;HPM_P1;HPM_P2
2021/12/19 00:09:00;;;;;;;31.58;21.95;;;3.90;96.30;;;;;;5073754;28;20036;-68
2021/12/19 00:11:29;;;;;;;31.38;21.20;;;3.90;96.40;;;;;;5074574;28;20037;-68
2021/12/19 00:13:56;;;;;;;28.27;20.40;;;3.90;96.50;;;;;;5073737;28;20108;-67
2021/12/19 00:16:24;;;;;;;29.17;20.23;;;3.90;96.50;;;;;;5074466;28;20477;-67
2021/12/19 00:18:52;;;;;;;29.88;20.50;;;3.90;96.50;;;;;;5072923;28;20063;-69
2021/12/19 00:21:19;;;;;;;29.58;19.73;;;3.90;96.50;;;;;;5073631;28;20032;-67
2021/12/19 00:23:47;;;;;;;29.63;20.17;;;3.90;96.50;;;;;;5074070;28;20031;-68
2021/12/19 00:26:13;;;;;;;27.90;19.27;;;3.90;96.60;;;;;;5073509;28;20024;-68
2021/12/19 00:28:39;;;;;;;27.35;19.25;;;3.90;96.50;;;;;;5074382;28;20027;-68
2021/12/19 00:31:06;;;;;;;28.15;19.33;;;3.90;96.40;;;;;;5073351;28;20039;-68
2021/12/19 00:33:32;;;;;;;28.75;19.30;;;4.00;96.40;;;;;;5073662;28;20495;-68
2021/12/19 00:35:58;;;;;;;26.02;19.13;;;4.00;96.20;;;;;;5073057;28;20025;-67
2021/12/19 00:38:24;;;;;;;28.80;19.45;;;4.00;96.20;;;;;;5074092;28;20461;-67
2021/12/19 00:40:50;;;;;;;26.17;18.58;;;4.00;96.20;;;;;;5073872;28;20028;-68
2021/12/19 00:43:34;;;;;;;30.33;21.23;;;4.00;96.20;;;;;;5073179;28;20335;-67
2021/12/19 00:46:06;;;;;;;30.35;19.40;;;4.00;96.30;;;;;;5073198;28;20033;-67
2021/12/19 00:48:33;;;;;;;28.23;19.80;;;3.90;96.30;;;;;;5073700;28;20421;-67
2021/12/19 00:50:59;;;;;;;32.42;20.40;;;3.90;96.40;;;;;;5072943;28;20036;-67
2021/12/19 00:53:25;;;;;;;29.90;21.27;;;3.90;96.50;;;;;;5073762;28;20025;-68
2021/12/19 00:55:50;;;;;;;30.95;20.63;;;3.80;96.60;;;;;;5073671;28;20457;-68
2021/12/19 00:58:17;;;;;;;30.80;20.63;;;3.80;96.80;;;;;;5089680;28;20025;-68
2021/12/19 01:00:42;;;;;;;33.80;21.92;;;3.80;97.00;;;;;;5093607;28;20107;-68
2021/12/19 01:03:08;;;;;;;31.75;21.05;;;3.80;97.10;;;;;;5093068;28;20524;-68
2021/12/19 01:05:38;;;;;;;31.38;21.55;;;3.70;97.30;;;;;;5093299;28;20396;-67
2021/12/19 01:08:05;;;;;;;33.17;21.52;;;3.70;97.50;;;;;;5092221;28;20020;-67
2021/12/19 01:10:32;;;;;;;30.30;20.50;;;3.70;97.80;;;;;;5093179;28;20417;-68
2021/12/19 01:12:57;;;;;;;31.38;20.95;;;3.60;97.90;;;;;;5093438;28;20054;-67
2021/12/19 01:15:24;;;;;;;31.40;20.98;;;3.60;98.00;;;;;;5093064;28;20036;-67
2021/12/19 01:17:51;;;;;;;30.73;21.25;;;3.60;98.10;;;;;;5093392;28;20024;-68
2021/12/19 01:20:20;;;;;;;30.77;21.35;;;3.50;98.20;;;;;;5092598;28;20050;-67
2021/12/19 01:22:46;;;;;;;29.17;20.83;;;3.60;98.30;;;;;;5092032;28;20368;-68
2021/12/19 01:25:13;;;;;;;29.85;21.60;;;3.50;98.30;;;;;;5092583;28;20384;-68
2021/12/19 01:27:39;;;;;;;33.38;22.63;;;3.50;98.40;;;;;;5093081;28;20035;-67
2021/12/19 01:30:06;;;;;;;27.42;20.60;;;3.50;98.60;;;;;;5092456;28;20028;-67
2021/12/19 01:32:33;;;;;;;31.83;22.33;;;3.50;98.70;;;;;;5082614;28;20024;-68
2021/12/19 01:34:58;;;;;;;30.58;22.02;;;3.50;98.80;;;;;;5072467;28;20439;-67
2021/12/19 01:37:24;;;;;;;36.95;23.73;;;3.50;98.80;;;;;;5070877;28;20055;-68
2021/12/19 01:39:50;;;;;;;33.17;23.17;;;3.50;98.90;;;;;;5072798;28;20033;-68
2021/12/19 01:42:19;;;;;;;33.38;24.80;;;3.50;99.10;;;;;;5072071;28;20028;-67
2021/12/19 01:44:46;;;;;;;33.63;23.67;;;3.50;99.20;;;;;;5072524;28;20033;-67
2021/12/19 01:47:12;;;;;;;34.25;23.17;;;3.50;99.40;;;;;;5071533;28;20070;-67
2021/12/19 01:49:38;;;;;;;33.58;24.10;;;3.50;99.50;;;;;;5072181;28;20039;-67
2021/12/19 01:52:04;;;;;;;35.55;24.92;;;3.50;99.60;;;;;;5071947;28;20032;-67
2021/12/19 01:54:30;;;;;;;36.53;24.63;;;3.50;99.70;;;;;;5072151;28;20029;-67
2021/12/19 01:56:55;;;;;;;35.83;24.70;;;3.50;99.90;;;;;;5070970;28;20362;-67
2021/12/19 01:59:21;;;;;;;38.50;26.17;;;3.60;99.90;;;;;;5071518;28;20228;-68
2021/12/19 02:01:53;;;;;;;37.42;25.20;;;3.50;99.90;;;;;;5072268;28;20035;-67
2021/12/19 02:04:21;;;;;;;37.60;25.98;;;3.50;99.90;;;;;;5071720;28;20032;-68
2021/12/19 02:06:47;;;;;;;36.10;24.83;;;3.50;99.90;;;;;;5072385;28;20062;-68
2021/12/19 02:09:13;;;;;;;39.15;25.33;;;3.50;99.90;;;;;;5071561;28;20028;-67
2021/12/19 02:11:41;;;;;;;38.35;25.60;;;3.50;99.90;;;;;;5071888;28;20029;-68
2021/12/19 02:14:08;;;;;;;38.05;25.67;;;3.50;99.90;;;;;;5071543;28;20436;-67
2021/12/19 02:16:36;;;;;;;37.55;25.67;;;3.50;99.90;;;;;;5072159;28;20192;-67
2021/12/19 02:19:04;;;;;;;37.60;26.02;;;3.60;99.90;;;;;;5071790;28;20017;-67
2021/12/19 02:21:30;;;;;;;37.60;25.67;;;3.60;99.90;;;;;;5071926;28;20477;-67
2021/12/19 02:23:58;;;;;;;38.22;25.88;;;3.50;99.90;;;;;;5070771;28;20056;-68
2021/12/19 02:26:23;;;;;;;37.38;25.30;;;3.60;99.90;;;;;;5071403;28;20127;-67
2021/12/19 02:28:49;;;;;;;41.20;26.00;;;3.60;99.90;;;;;;5070663;28;20055;-68
2021/12/19 02:31:15;;;;;;;41.20;27.42;;;3.60;99.90;;;;;;5071201;28;20024;-67
2021/12/19 02:33:44;;;;;;;36.83;25.63;;;3.60;99.90;;;;;;5071502;28;20162;-68
2021/12/19 02:49:28;;;;;;;39.28;26.17;;;3.60;99.90;;;;;;5071051;28;20098;-68
2021/12/19 02:51:55;;;;;;;40.40;25.83;;;3.60;99.90;;;;;;5071417;28;20362;-68
2021/12/19 02:54:22;;;;;;;38.63;25.20;;;3.50;99.90;;;;;;5070987;28;20029;-67
2021/12/19 02:56:48;;;;;;;39.17;24.38;;;3.50;99.90;;;;;;5071627;28;20033;-68
2021/12/19 02:59:14;;;;;;;40.50;25.35;;;3.60;99.90;;;;;;5071117;28;20036;-68
2021/12/19 03:01:43;;;;;;;40.38;26.88;;;3.60;99.90;;;;;;5071548;28;20021;-68
2021/12/19 03:04:09;;;;;;;38.20;25.38;;;3.60;99.90;;;;;;5070974;28;20525;-68
2021/12/19 03:06:35;;;;;;;38.47;25.98;;;3.60;99.90;;;;;;5072329;28;20039;-68
2021/12/19 03:09:06;;;;;;;41.25;25.13;;;3.50;99.90;;;;;;5089265;28;20111;-68
2021/12/19 03:20:00;;;;;;;39.53;24.38;;;3.50;99.90;;;;;;5091497;28;20456;-68
2021/12/19 03:22:26;;;;;;;39.78;26.25;;;3.50;99.90;;;;;;5091041;28;20028;-68
2021/12/19 03:24:52;;;;;;;39.97;24.98;;;3.50;99.90;;;;;;5091579;28;20369;-68
2021/12/19 03:27:17;;;;;;;41.10;25.23;;;3.50;99.90;;;;;;5091208;28;20028;-67
2021/12/19 03:29:43;;;;;;;40.20;24.08;;;3.50;99.90;;;;;;5091115;28;20135;-66
2021/12/19 03:32:09;;;;;;;36.97;24.67;;;3.50;99.90;;;;;;5091017;28;20028;-67
2021/12/19 03:34:35;;;;;;;39.63;24.55;;;3.50;99.90;;;;;;5095204;28;20024;-67
2021/12/19 03:37:02;;;;;;;35.85;23.88;;;3.50;99.90;;;;;;5091920;28;20173;-67
2021/12/19 03:39:36;;;;;;;38.42;23.35;;;3.50;99.90;;;;;;5094615;28;20036;-67
2021/12/19 03:42:02;;;;;;;38.65;23.85;;;3.50;99.90;;;;;;5095375;28;20039;-67
2021/12/19 03:44:28;;;;;;;35.65;22.92;;;3.50;99.90;;;;;;5094524;28;20208;-67
2021/12/19 03:46:54;;;;;;;35.67;23.08;;;3.50;99.90;;;;;;5094785;28;20055;-67
2021/12/19 03:49:20;;;;;;;36.20;22.35;;;3.50;99.90;;;;;;5094379;28;20039;-67
2021/12/19 03:51:46;;;;;;;34.17;21.92;;;3.50;99.90;;;;;;5095010;28;20107;-67
2021/12/19 03:54:12;;;;;;;39.20;23.08;;;3.50;99.90;;;;;;5094375;28;20449;-67
2021/12/19 03:56:38;;;;;;;37.95;23.13;;;3.50;99.90;;;;;;5094972;28;20043;-67
2021/12/19 03:59:22;;;;;;;35.28;22.92;;;3.40;99.90;;;;;;5093454;28;20024;-67
2021/12/19 04:01:51;;;;;;;36.92;22.90;;;3.40;99.90;;;;;;5094918;28;20137;-67
2021/12/19 04:04:17;;;;;;;34.50;21.70;;;3.40;99.90;;;;;;5094131;28;20024;-67
2021/12/19 04:06:42;;;;;;;31.75;21.90;;;3.40;99.90;;;;;;5094814;28;20081;-67
2021/12/19 04:09:08;;;;;;;34.08;22.50;;;3.40;99.90;;;;;;5094587;28;20475;-67
2021/12/19 04:11:34;;;;;;;37.88;22.55;;;3.40;99.90;;;;;;5093990;28;20028;-67
2021/12/19 04:13:59;;;;;;;40.67;22.05;;;3.40;99.90;;;;;;5094482;28;20024;-67
2021/12/19 04:16:25;;;;;;;36.92;21.58;;;3.40;99.90;;;;;;5094027;28;20024;-67
2021/12/19 04:18:51;;;;;;;34.88;22.02;;;3.40;99.90;;;;;;5094414;28;20073;-67
2021/12/19 04:21:16;;;;;;;35.03;22.55;;;3.40;99.90;;;;;;5093673;28;20027;-67
2021/12/19 04:23:42;;;;;;;32.78;21.95;;;3.40;99.90;;;;;;5094882;28;20035;-66
2021/12/19 04:26:08;;;;;;;35.03;21.55;;;3.40;99.90;;;;;;5094357;28;20039;-67
2021/12/19 04:28:34;;;;;;;32.03;20.77;;;3.40;99.90;;;;;;5093661;28;20035;-67
2021/12/19 04:31:01;;;;;;;32.85;21.00;;;3.40;99.90;;;;;;5094199;28;20038;-67
2021/12/19 04:33:28;;;;;;;34.03;20.98;;;3.40;99.90;;;;;;5093687;28;20120;-67
2021/12/19 04:36:00;;;;;;;29.05;19.80;;;3.50;99.90;;;;;;5094265;28;20354;-66
2021/12/19 04:57:22;;;;;;;34.78;20.77;;;3.40;99.90;;;;;;5073827;28;20032;-68
2021/12/19 04:59:59;;;;;;;31.88;19.85;;;3.40;99.90;;;;;;5093398;28;20497;-68
2021/12/19 05:02:40;;;;;;;32.95;20.63;;;3.40;99.90;;;;;;5093178;28;20106;-68
2021/12/19 05:15:54;;;;;;;28.30;18.38;;;3.30;99.90;;;;;;5093190;28;20111;-68
2021/12/19 05:18:23;;;;;;;28.63;18.95;;;3.30;99.90;;;;;;5091322;28;20048;-68
2021/12/19 05:20:58;;;;;;;33.00;19.45;;;3.30;99.90;;;;;;5093362;28;20043;-68
2021/12/19 05:25:51;;;;;;;29.48;18.35;;;3.30;99.90;;;;;;5093455;28;20098;-68
2021/12/19 05:28:17;;;;;;;29.98;18.38;;;3.30;99.90;;;;;;5089218;28;20020;-68
2021/12/19 05:30:42;;;;;;;28.83;18.08;;;3.30;99.90;;;;;;5092699;28;20089;-68
2021/12/19 05:33:08;;;;;;;28.05;17.98;;;3.30;99.90;;;;;;5093115;28;20113;-68
2021/12/19 05:46:33;;;;;;;29.73;19.50;;;3.30;99.90;;;;;;5091954;28;20157;-67
2021/12/19 05:48:58;;;;;;;27.70;17.98;;;3.30;99.90;;;;;;5092349;28;20130;-67
2021/12/19 05:51:24;;;;;;;26.80;17.92;;;3.30;99.90;;;;;;5092105;28;20020;-67
2021/12/19 05:53:50;;;;;;;29.70;18.48;;;3.30;99.90;;;;;;5092619;28;20032;-67
2021/12/19 05:56:17;;;;;;;28.55;17.08;;;3.20;99.90;;;;;;5091860;28;20048;-67
2021/12/19 05:58:42;;;;;;;26.80;17.58;;;3.20;99.90;;;;;;5092432;28;20024;-67
2021/12/19 06:01:08;;;;;;;28.25;18.08;;;3.20;99.90;;;;;;5092556;28;20099;-67
2021/12/19 06:03:33;;;;;;;29.20;18.50;;;3.20;99.90;;;;;;5091967;28;20449;-67
2021/12/19 06:05:59;;;;;;;29.33;16.83;;;3.20;99.90;;;;;;5078240;28;20442;-67
2021/12/19 06:08:25;;;;;;;26.90;18.17;;;3.10;99.90;;;;;;5078326;28;20066;-67
2021/12/19 06:10:50;;;;;;;30.38;18.13;;;3.10;99.90;;;;;;5071782;28;20037;-67
2021/12/19 06:13:16;;;;;;;27.10;17.10;;;3.10;99.90;;;;;;5072088;28;20087;-67
2021/12/19 06:15:42;;;;;;;26.02;16.20;;;3.10;99.90;;;;;;5071536;28;20081;-66
2021/12/19 06:18:08;;;;;;;28.73;16.75;;;3.10;99.90;;;;;;5071827;28;20119;-67
2021/12/19 06:20:33;;;;;;;25.35;15.80;;;3.10;99.90;;;;;;5071419;28;20039;-66
2021/12/19 06:22:59;;;;;;;29.70;16.88;;;3.10;99.90;;;;;;5072356;28;20051;-67
2021/12/19 06:25:26;;;;;;;28.48;17.27;;;3.10;99.90;;;;;;5071153;28;20093;-67
2021/12/19 06:27:51;;;;;;;29.38;17.42;;;3.10;99.90;;;;;;5072033;28;20451;-67
2021/12/19 06:30:17;;;;;;;27.98;18.08;;;3.10;99.90;;;;;;5071689;28;20120;-68
2021/12/19 06:32:43;;;;;;;28.40;17.73;;;3.10;99.90;;;;;;5070995;28;20419;-67
2021/12/19 06:35:17;;;;;;;25.95;16.75;;;3.10;99.90;;;;;;5071892;28;20429;-67
2021/12/19 06:37:47;;;;;;;30.00;17.60;;;3.10;99.90;;;;;;5071321;28;20029;-67
2021/12/19 06:40:16;;;;;;;26.58;17.27;;;3.10;99.90;;;;;;5071969;28;20028;-67
2021/12/19 06:42:41;;;;;;;29.30;17.27;;;3.10;99.90;;;;;;5070916;28;20024;-67
2021/12/19 06:45:08;;;;;;;29.20;17.65;;;3.00;99.90;;;;;;5072137;28;20035;-67
2021/12/19 06:47:34;;;;;;;29.95;17.13;;;3.00;99.90;;;;;;5070614;28;20127;-68
2021/12/19 06:50:01;;;;;;;26.20;16.17;;;3.00;99.90;;;;;;5071704;28;20124;-68
2021/12/19 06:52:27;;;;;;;24.25;15.98;;;3.10;99.90;;;;;;5071342;28;20381;-67
2021/12/19 06:54:53;;;;;;;25.10;15.07;;;3.10;99.90;;;;;;5071743;28;20020;-67
2021/12/19 06:57:19;;;;;;;24.17;15.35;;;3.10;99.90;;;;;;5071443;28;20052;-66
2021/12/19 06:59:44;;;;;;;28.70;15.57;;;3.10;99.90;;;;;;5069686;28;20037;-66
2021/12/19 07:02:14;;;;;;;23.45;14.98;;;3.10;99.90;;;;;;5071709;28;20059;-67
2021/12/19 07:04:43;;;;;;;20.40;14.13;;;3.10;99.90;;;;;;5071081;28;20330;-66
2021/12/19 07:07:10;;;;;;;23.08;14.27;;;3.10;99.90;;;;;;5073208;28;20033;-68
2021/12/19 07:09:36;;;;;;;19.35;13.32;;;3.10;99.90;;;;;;5074793;28;20434;-68
2021/12/19 07:12:02;;;;;;;18.30;12.45;;;3.10;99.90;;;;;;5075509;28;20103;-67
2021/12/19 07:14:28;;;;;;;20.80;13.15;;;3.10;99.90;;;;;;5074756;28;20056;-66
2021/12/19 07:16:54;;;;;;;18.83;12.57;;;3.10;99.90;;;;;;5082253;28;20068;-67
2021/12/19 07:19:19;;;;;;;19.90;12.13;;;3.20;99.90;;;;;;5095480;28;20020;-67
2021/12/19 07:21:45;;;;;;;18.63;12.07;;;3.10;99.90;;;;;;5094745;28;20028;-67
2021/12/19 07:24:11;;;;;;;18.67;11.18;;;3.20;99.90;;;;;;5095595;28;20069;-68
2021/12/19 07:26:36;;;;;;;17.67;11.80;;;3.20;99.90;;;;;;5095245;28;20031;-67
2021/12/19 07:29:03;;;;;;;17.10;11.05;;;3.20;99.90;;;;;;5095467;28;20032;-69
2021/12/19 07:31:30;;;;;;;17.80;11.00;;;3.20;99.90;;;;;;5093028;28;20037;-67
2021/12/19 07:33:57;;;;;;;16.30;10.05;;;3.20;99.90;;;;;;5075217;28;20101;-67
2021/12/19 07:36:25;;;;;;;17.90;10.98;;;3.30;99.90;;;;;;5075137;28;20435;-68
2021/12/19 07:39:02;;;;;;;14.73;9.60;;;3.30;99.90;;;;;;5074882;28;20033;-67
2021/12/19 07:41:28;;;;;;;14.30;9.90;;;3.30;99.90;;;;;;5074268;28;20032;-67
2021/12/19 07:43:53;;;;;;;15.52;10.13;;;3.30;99.90;;;;;;5074932;28;20107;-68
2021/12/19 07:46:19;;;;;;;14.50;9.90;;;3.40;99.90;;;;;;5074842;28;20052;-66
2021/12/19 07:48:45;;;;;;;13.75;9.02;;;3.40;99.90;;;;;;5074165;28;20076;-67
2021/12/19 07:51:10;;;;;;;13.23;9.43;;;3.40;99.90;;;;;;5074658;28;20040;-67
2021/12/19 07:53:36;;;;;;;14.80;9.68;;;3.40;99.90;;;;;;5074129;28;20083;-67
2021/12/19 07:56:02;;;;;;;16.08;9.02;;;3.40;99.90;;;;;;5082403;28;20032;-67
2021/12/19 07:58:28;;;;;;;12.77;8.70;;;3.50;99.90;;;;;;5094023;28;20038;-67
2021/12/19 08:00:53;;;;;;;14.55;9.35;;;3.50;99.90;;;;;;5094208;28;20445;-67
2021/12/19 08:03:19;;;;;;;12.13;8.60;;;3.50;99.90;;;;;;5094043;28;20473;-67
2021/12/19 08:05:45;;;;;;;11.27;7.80;;;3.50;99.90;;;;;;5093940;28;20024;-67
2021/12/19 08:08:16;;;;;;;12.50;8.63;;;3.50;99.90;;;;;;5094200;28;20114;-67
2021/12/19 08:13:08;;;;;;;11.25;8.23;;;3.60;99.90;;;;;;5094126;28;20119;-66
2021/12/19 08:15:37;;;;;;;13.65;7.97;;;3.60;99.90;;;;;;5094050;28;20196;-67
2021/12/19 08:18:03;;;;;;;15.77;8.73;;;3.60;99.90;;;;;;5093907;28;20465;-67
2021/12/19 08:20:29;;;;;;;15.02;8.93;;;3.60;99.90;;;;;;5093883;28;20116;-67
2021/12/19 08:22:56;;;;;;;12.88;8.13;;;3.60;99.90;;;;;;5093034;28;20512;-67
2021/12/19 08:25:23;;;;;;;12.70;8.13;;;3.60;99.90;;;;;;5074238;28;20489;-66
2021/12/19 08:27:49;;;;;;;14.68;8.27;;;3.70;99.90;;;;;;5073482;28;20234;-68
2021/12/19 08:30:16;;;;;;;12.10;8.27;;;3.70;99.90;;;;;;5086586;28;20036;-67
2021/12/19 08:32:42;;;;;;;13.70;8.52;;;3.70;99.90;;;;;;5093441;28;20477;-67
2021/12/19 08:35:09;;;;;;;13.25;8.82;;;3.80;99.90;;;;;;5087339;28;20028;-67
2021/12/19 08:37:35;;;;;;;13.75;8.75;;;3.80;99.90;;;;;;5081043;28;20032;-67
2021/12/19 08:40:01;;;;;;;13.20;8.75;;;3.80;99.90;;;;;;5085954;28;20045;-67
2021/12/19 08:42:32;;;;;;;12.98;8.60;;;3.90;99.90;;;;;;5086055;28;20086;-68
2021/12/19 08:44:58;;;;;;;14.02;9.02;;;3.90;99.90;;;;;;5093699;28;20024;-68
2021/12/19 08:47:43;;;;;;;13.90;9.20;;;3.90;99.80;;;;;;5076487;28;20049;-68
2021/12/19 08:50:09;;;;;;;12.50;8.50;;;3.90;99.70;;;;;;5089540;28;20483;-68
2021/12/19 08:52:35;;;;;;;12.00;8.85;;;4.00;99.50;;;;;;5081443;28;20024;-68
2021/12/19 08:55:03;;;;;;;12.20;8.30;;;4.10;98.90;;;;;;5081387;28;20450;-67
2021/12/19 08:57:28;;;;;;;12.95;8.98;;;4.10;98.90;;;;;;5083839;28;20036;-67
2021/12/19 08:59:54;;;;;;;13.27;8.95;;;4.20;98.90;;;;;;5083819;28;20392;-67
2021/12/19 09:02:20;;;;;;;13.32;8.80;;;4.20;98.80;;;;;;5082965;28;20025;-68
2021/12/19 09:04:46;;;;;;;12.38;8.45;;;4.20;98.40;;;;;;5080443;28;20108;-67
2021/12/19 09:07:14;;;;;;;13.45;8.43;;;4.30;98.10;;;;;;5074259;28;20020;-65
2021/12/19 09:09:40;;;;;;;13.82;8.77;;;4.30;98.00;;;;;;5092686;28;20063;-64
2021/12/19 09:12:06;;;;;;;13.48;7.85;;;4.50;99.90;;;;;;5093246;28;20183;-67
2021/12/19 09:14:32;;;;;;;12.20;8.10;;;4.50;98.10;;;;;;5087864;28;20512;-68
2021/12/19 09:16:57;;;;;;;9.93;7.10;;;4.50;97.40;;;;;;5086671;28;20225;-67
2021/12/19 09:19:25;;;;;;;10.75;7.25;;;4.50;96.90;;;;;;5078545;28;20028;-68
2021/12/19 09:21:51;;;;;;;11.07;7.03;;;4.50;96.70;;;;;;5072190;28;20024;-67
2021/12/19 09:24:16;;;;;;;11.13;7.60;;;4.50;96.60;;;;;;5072542;28;20484;-67
2021/12/19 09:26:43;;;;;;;10.40;6.95;;;4.50;96.50;;;;;;5074274;28;20410;-67
2021/12/19 09:29:09;;;;;;;10.65;6.80;;;4.60;96.40;;;;;;5092004;28;20032;-68
2021/12/19 09:31:34;;;;;;;10.48;6.75;;;4.60;96.20;;;;;;5092292;28;20553;-67
2021/12/19 09:34:00;;;;;;;9.55;6.70;;;4.60;96.20;;;;;;5092651;28;20028;-68
2021/12/19 09:36:26;;;;;;;9.88;6.45;;;4.60;96.40;;;;;;5092857;28;20024;-68
2021/12/19 09:38:52;;;;;;;9.80;6.35;;;4.70;96.00;;;;;;5073535;28;20513;-67
2021/12/19 09:41:28;;;;;;;10.95;6.72;;;4.70;95.80;;;;;;5070751;28;20035;-68
2021/12/19 09:43:58;;;;;;;10.07;5.90;;;4.70;96.00;;;;;;5070365;28;20469;-67
2021/12/19 09:46:28;;;;;;;10.55;6.13;;;4.70;95.70;;;;;;5071102;28;20032;-68
2021/12/19 09:48:54;;;;;;;8.77;5.97;;;4.70;95.90;;;;;;5071464;28;20049;-68
2021/12/19 09:51:19;;;;;;;9.77;6.03;;;4.80;95.50;;;;;;5072218;28;20527;-68
2021/12/19 09:53:45;;;;;;;8.20;5.38;;;4.80;95.10;;;;;;5071432;28;20024;-68
2021/12/19 09:56:12;;;;;;;11.85;6.20;;;4.80;94.90;;;;;;5072024;28;20465;-68
2021/12/19 09:58:40;;;;;;;8.98;5.93;;;4.90;94.70;;;;;;5071773;28;20559;-68
2021/12/19 10:01:10;;;;;;;8.52;5.35;;;4.90;94.10;;;;;;5072118;28;20119;-67
2021/12/19 10:03:36;;;;;;;10.73;5.75;;;5.00;93.70;;;;;;5071926;28;20369;-67
2021/12/19 10:06:27;;;;;;;7.55;5.53;;;5.00;92.70;;;;;;5072183;28;20031;-68
2021/12/19 10:09:15;;;;;;;8.77;5.82;;;5.20;92.20;;;;;;5071625;28;20050;-68
2021/12/19 10:14:30;;;;;;;7.18;5.20;;;5.50;91.20;;;;;;5072079;28;20040;-67
2021/12/19 10:16:58;;;;;;;8.45;5.10;;;5.60;90.20;;;;;;5071472;28;20063;-68
2021/12/19 10:19:46;;;;;;;7.88;5.20;;;5.70;89.30;;;;;;5071634;28;20028;-67
2021/12/19 10:22:30;;;;;;;6.45;4.47;;;5.90;88.60;;;;;;5071991;28;20056;-67
2021/12/19 10:25:18;;;;;;;7.75;4.43;;;6.10;87.70;;;;;;5070914;28;20469;-67
2021/12/19 10:27:53;;;;;;;5.88;4.65;;;6.20;85.60;;;;;;5070394;28;20032;-67
2021/12/19 10:30:30;;;;;;;5.10;4.13;;;6.30;84.50;;;;;;5071820;28;20086;-67
2021/12/19 10:33:03;;;;;;;6.15;4.40;;;6.40;83.90;;;;;;5071002;28;20111;-68
2021/12/19 10:35:47;;;;;;;6.07;4.47;;;6.50;83.10;;;;;;5071511;28;20032;-67
2021/12/19 10:38:43;;;;;;;7.53;3.92;;;6.60;81.40;;;;;;5087430;28;20128;-67
2021/12/19 10:41:22;;;;;;;4.72;3.72;;;6.60;79.80;;;;;;5074734;28;20451;-67
2021/12/19 10:45:29;;;;;;;4.80;3.55;;;6.70;80.40;;;;;;5091213;28;20460;-67
2021/12/19 10:46:40;;;;;;;4.32;3.22;;;6.80;79.40;;;;;;5090358;28;20128;-67
2021/12/19 10:49:23;;;;;;;6.05;3.90;;;6.90;78.60;;;;;;5090525;28;20097;-68
2021/12/19 10:51:50;;;;;;;5.43;3.90;;;6.90;78.00;;;;;;5091068;28;20067;-67
2021/12/19 10:54:17;;;;;;;7.38;3.50;;;7.00;77.10;;;;;;5091373;28;20461;-68
2021/12/19 10:56:43;;;;;;;5.18;3.90;;;7.10;76.90;;;;;;5090747;28;20473;-68
2021/12/19 10:59:14;;;;;;;5.65;3.92;;;7.10;75.90;;;;;;5091583;28;20028;-67
2021/12/19 11:01:51;;;;;;;5.45;3.80;;;7.10;75.70;;;;;;5091692;28;20069;-68
2021/12/19 11:04:19;;;;;;;11.77;4.18;;;7.20;76.20;;;;;;5091494;28;20036;-67
2021/12/19 11:06:46;;;;;;;5.68;4.22;;;7.20;75.30;;;;;;5090944;28;20035;-68
2021/12/19 11:09:24;;;;;;;10.82;4.25;;;7.30;74.90;;;;;;5091549;28;20035;-68
2021/12/19 11:11:52;;;;;;;6.43;4.05;;;7.30;74.60;;;;;;5090559;28;20111;-66
2021/12/19 11:14:31;;;;;;;5.18;4.00;;;7.30;74.70;;;;;;5080463;28;20035;-66
2021/12/19 11:17:03;;;;;;;9.82;4.90;;;7.20;74.60;;;;;;5082442;28;20021;-66
2021/12/19 11:19:31;;;;;;;6.65;4.68;;;7.20;75.30;;;;;;5090348;28;20031;-67
2021/12/19 11:21:57;;;;;;;6.97;4.82;;;7.30;75.40;;;;;;5089742;28;20468;-67
2021/12/19 11:24:25;;;;;;;6.07;4.10;;;7.40;75.20;;;;;;5091224;28;20028;-67
2021/12/19 11:26:54;;;;;;;6.97;4.50;;;7.40;74.70;;;;;;5087400;28;20028;-67
2021/12/19 11:29:20;;;;;;;7.47;4.55;;;7.40;74.40;;;;;;5091363;28;20561;-68
2021/12/19 11:31:50;;;;;;;10.00;4.80;;;7.40;74.10;;;;;;5090607;28;20417;-68
2021/12/19 11:34:23;;;;;;;6.03;4.83;;;7.40;74.40;;;;;;5091391;28;20493;-68
2021/12/19 11:37:00;;;;;;;6.60;4.75;;;7.50;74.40;;;;;;5090587;28;20612;-68
2021/12/19 11:39:34;;;;;;;7.32;4.57;;;7.40;73.80;;;;;;5091266;28;20108;-68
2021/12/19 11:42:11;;;;;;;6.32;4.80;;;7.40;74.50;;;;;;5090864;28;20338;-68
2021/12/19 11:44:50;;;;;;;6.07;4.45;;;7.40;74.80;;;;;;5091055;28;20032;-69
2021/12/19 11:47:35;;;;;;;6.97;4.68;;;7.40;74.40;;;;;;5091056;28;20052;-68
2021/12/19 11:50:16;;;;;;;7.97;4.57;;;7.30;74.80;;;;;;5085802;28;20103;-68
2021/12/19 11:52:42;;;;;;;9.77;4.57;;;7.30;75.40;;;;;;5091607;28;20035;-69
2021/12/19 11:55:14;;;;;;;6.22;4.68;;;7.40;75.80;;;;;;5093971;28;20032;-68
2021/12/19 11:58:04;;;;;;;6.15;4.57;;;7.40;75.30;;;;;;5094320;28;20028;-68
2021/12/19 12:00:34;;;;;;;7.57;4.80;;;7.30;75.30;;;;;;5094433;28;20028;-68
2021/12/19 12:03:12;;;;;;;7.68;4.70;;;7.30;75.60;;;;;;5092398;28;20503;-68
2021/12/19 12:05:43;;;;;;;6.85;4.88;;;7.40;75.70;;;;;;5093890;28;20020;-70
2021/12/19 12:08:09;;;;;;;6.57;4.72;;;7.40;75.40;;;;;;5078647;28;20029;-69
2021/12/19 12:10:58;;;;;;;6.70;4.63;;;7.50;75.50;;;;;;5073777;28;20055;-68
2021/12/19 12:13:31;;;;;;;7.18;4.53;;;7.50;75.10;;;;;;5074033;28;20028;-68
2021/12/19 12:16:19;;;;;;;6.35;4.50;;;7.40;75.50;;;;;;5073101;28;20067;-67
2021/12/19 12:18:53;;;;;;;7.45;4.75;;;7.50;75.20;;;;;;5081926;28;20490;-68
2021/12/19 12:23:59;;;;;;;6.03;4.35;;;7.40;75.80;;;;;;5092026;28;20028;-68
2021/12/19 12:26:37;;;;;;;6.25;4.18;;;7.40;75.80;;;;;;5094078;28;20028;-69
2021/12/19 12:29:04;;;;;;;7.53;3.70;;;7.40;76.20;;;;;;5083421;28;20108;-68
2021/12/19 12:31:30;;;;;;;5.93;4.25;;;7.30;75.90;;;;;;5073580;28;20032;-68
2021/12/19 12:33:57;;;;;;;6.22;4.18;;;7.20;76.30;;;;;;5076145;28;20099;-68
2021/12/19 12:36:23;;;;;;;5.05;3.25;;;7.20;77.30;;;;;;5094160;28;20157;-68
2021/12/19 12:38:50;;;;;;;5.45;3.63;;;7.20;77.00;;;;;;5092996;28;20531;-68
2021/12/19 12:44:15;;;;;;;6.57;3.13;;;7.20;77.00;;;;;;5091968;28;20084;-68
2021/12/19 12:46:44;;;;;;;5.70;3.38;;;7.30;76.60;;;;;;5093652;28;20070;-69
2021/12/19 12:49:29;;;;;;;4.40;3.45;;;7.20;76.90;;;;;;5092508;28;20058;-68
2021/12/19 12:51:57;;;;;;;3.80;3.10;;;7.10;77.50;;;;;;5092982;28;20055;-68
2021/12/19 12:54:36;;;;;;;5.38;3.75;;;7.10;77.50;;;;;;5080831;28;20030;-67
2021/12/19 12:57:11;;;;;;;4.40;3.20;;;7.00;77.70;;;;;;5092254;28;20499;-67
2021/12/19 12:59:39;;;;;;;4.95;3.35;;;6.90;78.10;;;;;;5091890;28;20452;-70
2021/12/19 13:02:14;;;;;;;5.88;3.33;;;6.90;78.90;;;;;;5092384;28;20326;-69
2021/12/19 13:04:46;;;;;;;4.15;3.28;;;6.90;78.90;;;;;;5091529;28;20552;-69
2021/12/19 13:07:15;;;;;;;3.33;2.72;;;6.90;79.40;;;;;;5092736;28;20031;-69
2021/12/19 13:10:00;;;;;;;5.28;3.50;;;6.80;79.50;;;;;;5092898;28;20389;-69
2021/12/19 13:12:32;;;;;;;5.43;3.33;;;6.80;79.20;;;;;;5092687;28;20028;-68
2021/12/19 13:15:06;;;;;;;3.45;3.00;;;6.80;79.80;;;;;;5090991;28;20019;-68
2021/12/19 13:17:37;;;;;;;5.93;3.13;;;6.80;79.90;;;;;;5091543;28;20028;-69
2021/12/19 13:20:11;;;;;;;3.88;3.17;;;6.70;80.10;;;;;;5087843;28;20041;-68
2021/12/19 13:22:48;;;;;;;5.65;3.25;;;6.60;81.00;;;;;;5091753;28;20024;-69
2021/12/19 13:25:18;;;;;;;6.18;3.05;;;6.60;81.00;;;;;;5090840;28;20035;-70
2021/12/19 13:27:52;;;;;;;5.38;3.50;;;6.50;81.30;;;;;;5091555;28;20066;-69
2021/12/19 13:30:20;;;;;;;4.55;3.30;;;6.50;81.70;;;;;;5091300;28;20035;-69
2021/12/19 13:32:49;;;;;;;4.65;3.40;;;6.40;81.80;;;;;;5091531;28;20471;-70
2021/12/19 13:35:28;;;;;;;4.30;3.20;;;6.30;82.30;;;;;;5091333;28;20032;-68
2021/12/19 13:38:11;;;;;;;7.10;3.55;;;6.30;82.70;;;;;;5089018;28;20020;-68
2021/12/19 13:40:50;;;;;;;5.45;3.78;;;6.30;83.30;;;;;;5092309;28;20031;-69
2021/12/19 13:43:22;;;;;;;4.90;3.65;;;6.20;83.50;;;;;;5092087;28;20114;-68
2021/12/19 13:45:48;;;;;;;5.07;3.60;;;6.20;83.60;;;;;;5092637;28;20169;-69
2021/12/19 13:48:38;;;;;;;5.22;3.72;;;6.20;83.60;;;;;;5091429;28;20048;-68
2021/12/19 13:51:14;;;;;;;6.53;3.95;;;6.20;84.00;;;;;;5091509;28;20043;-69
2021/12/19 13:53:42;;;;;;;4.93;3.90;;;6.10;84.10;;;;;;5092663;28;20507;-69
2021/12/19 13:56:14;;;;;;;7.10;3.63;;;6.00;84.40;;;;;;5091691;28;20023;-68
2021/12/19 13:58:48;;;;;;;9.95;4.70;;;6.00;85.20;;;;;;5092351;28;20024;-69
2021/12/19 14:01:19;;;;;;;5.97;4.47;;;6.00;85.70;;;;;;5091737;28;20325;-68
2021/12/19 14:03:58;;;;;;;4.82;3.70;;;5.90;85.80;;;;;;5092099;28;20062;-68
2021/12/19 14:06:23;;;;;;;8.48;4.65;;;5.90;86.30;;;;;;5092254;28;20028;-69
2021/12/19 14:08:57;;;;;;;5.43;4.47;;;5.80;86.60;;;;;;5092245;28;20091;-68
2021/12/19 14:11:25;;;;;;;6.65;4.25;;;5.80;86.80;;;;;;5091902;28;20032;-68
2021/12/19 14:14:10;;;;;;;8.35;4.68;;;5.70;87.10;;;;;;5092258;28;20349;-68
2021/12/19 14:16:44;;;;;;;7.38;4.55;;;5.70;87.50;;;;;;5091837;28;20032;-69
2021/12/19 14:19:23;;;;;;;7.90;3.95;;;5.70;88.60;;;;;;5091465;28;20099;-69